KSPI/SPI METAR and TAF weather

Enter ICAO airport designator
Station Type Date Time Source
KSPI METAR 2019/08/20 09:52 UTC NOAA

KSPI 200952Z AUTO 12003KT 10SM SCT041 23/22 A2997 RMK AO2 SLP142 T02330217


Station Type Date Time Source
KSPI Decoded METAR 2019/08/20 09:52 UTC NOAA

ABRAHAM LINCOLN CAPITAL AIRPORT , IL, United States (KSPI) 39-51N 89-41W 181M
Aug 20, 2019 - 05:52 AM EDT / 2019.08.20 0952 UTC
Wind: from the ESE (120 degrees) at 3 MPH (3 KT):0
Visibility: 10 mile(s):0
Sky conditions: partly cloudy
Temperature: 73.9 F (23.3 C)
Dew Point: 71.1 F (21.7 C)
Relative Humidity: 90%
Pressure (altimeter): 29.97 in. Hg (1014 hPa)
ob: KSPI 200952Z AUTO 12003KT 10SM SCT041 23/22 A2997 RMK AO2 SLP142 T02330217
cycle: 10

Station Type Date Time Source
KSPI TAF 2019/08/20 06:22 UTC NOAA

TAF KSPI 200520Z 2006/2106 VRB03KT P6SM SKC
TEMPO 2010/2012 5SM BR
FM201500 16008KT P6SM VCTS BKN025CB
TEMPO 2015/2016 3SM TSRA BR BKN012CB
FM201700 22008KT P6SM SCT050 BKN120
FM210000 VRB03KT P6SM SCT120 BKN250

Example: see airport list